Airfield :
LOGIN :

Register | Disclaimer

   EN    FR    IT 

 










Legend :    VFR   Marginal VFR   IFR   Intensive IFR   Very Intensive IFR
Visi :
Ceiling :
>= 8 km
>= 3000ft
5 to 8 km
1000 to 3000 ft
1500m to 5 km
500 to 1000 ft
800 to 1500m
200 to 500 ft
< 800m
< 200 ft
Symbols :   Thunderstorms  Fog  Heavy snow  Heavy precipitations  Wind > 20 kt
SIGMETs :     Misc.  Thunderstorms  Icing  Turbulence  Mountain Waves  Volcanic Ashes







- Airport Elevation : 527 ft
- IATA code : DBV


LDDU - Dubrovnik

CURRENT METAR :
  • 221100Z 08006KT 030V130 9999 FEW045 21/07 Q1015 BECMG 10012KT

EXPIRED METARs :
  • 221030Z 06005KT 030V100 9999 FEW045 20/08 Q1015 BECMG TL1100 10012KT
  • 221000Z 03010KT 340V070 9999 FEW045 19/07 Q1015 NOSIG
  • 220930Z 02011KT 350V050 9999 FEW045 18/07 Q1016 NOSIG
  • 220900Z 03011KT 360V060 9999 FEW045 18/06 Q1016 NOSIG

TAF TAF LDDU
Valid from the 22 at 12:00 until the 23 at 12:00 UTC


221125Z 2212/2312 14012KT 9999 SCT040 TX21/2212Z TN15/2305Z
PROB30
TEMPO 2212/2215 -TSRA FEW035CB BKN040
BECMG 2214/2216 09008KT
BECMG 2217/2219 02018KT
TEMPO 2219/2308 02018G30KT
BECMG 2309/2311 26009KT
No reported NOTAMs for that airfield.
1 SIGMET reported for the Zagreb FIR (LDZO) :
 
Severe turbulence
LDZO SIGMET 5 VALID 220900/221300 LDZA
LDZO ZAGREB FIR SEV TURB FCST WI N4459 E01543 - N4348 E01643 - N4318 E01553 - N4517 E01258 - N4533 E01322 - N4538 E01431 - N4459 E01543 SFC/6000FT STNR NC=



MET'MAP, your aeronautical weather chart ! - Copyright ORBIFLY December 2007 - Disclaimer

ORBIFLY MET'MAP TEAM :

Programming & Development : Alexandra Zaïnal
Concept & Development : Baudouin d'Aumeries
Co-Development & Prog : Marc-Olivier Méhu
Technical & hardware support : Manuel Goepfert

Contact : metmap@orbifly.com




SOURCES & CREDITS :

   NOAA